LFEV weather

Gray St Adrien Airfield
Gray St Adrien, Franche-Comté, France

Public forecast

Using degrees Celsius for public forecast. Weather courtesy of forecast.io.

METAR (pilot weather report)

Closest report is Dijon-Bourgogne Airport, 23.7 nm (43.8 km) WSW. Retrieved 2019/07/23 19:30 UTC (0 seconds ago):

LFSD 231930Z AUTO VRB02KT CAVOK 30/12 Q1016

TAF (pilot weather forecast)

Forecast is more than 12 hours old.

Closest forecast is Dijon-Bourgogne Airport, 23.7 nm (43.8 km) WSW. Retrieved 2015/06/01 00:11 UTC (4 years ago):

TAF LFSD 010600Z 0100/0124 CNL